createdAt,value
2023-04-20T00:00:11.520Z,18.65
2023-04-20T00:03:15.613Z,20.73
2023-04-20T00:06:19.066Z,19.73
2023-04-20T00:09:21.851Z,19.35
2023-04-20T00:12:25.120Z,19.52
2023-04-20T00:15:28.100Z,21.20
2023-04-20T00:18:31.286Z,22.58
2023-04-20T00:21:34.889Z,23.57
2023-04-20T00:24:37.990Z,27.17
2023-04-20T00:27:40.845Z,23.85
2023-04-20T00:30:43.977Z,22.17
2023-04-20T00:33:47.989Z,17.65
2023-04-20T00:36:51.258Z,18.50
2023-04-20T00:39:53.937Z,24.05
2023-04-20T00:42:57.418Z,20.88
2023-04-20T00:46:00.205Z,20.12
2023-04-20T00:49:03.564Z,17.80
2023-04-20T00:52:06.700Z,19.77
2023-04-20T00:55:10.044Z,20.70
2023-04-20T00:58:14.550Z,19.40
2023-04-20T01:01:17.959Z,24.55
2023-04-20T01:04:21.977Z,18.60
2023-04-20T01:07:26.117Z,16.77
2023-04-20T01:10:29.124Z,18.92
2023-04-20T01:13:32.574Z,18.65
2023-04-20T01:16:36.882Z,17.52
2023-04-20T01:19:41.180Z,18.10
2023-04-20T01:22:51.218Z,18.03
2023-04-20T01:25:54.372Z,16.50
2023-04-20T01:28:59.142Z,18.23
2023-04-20T01:32:02.412Z,18.75
2023-04-20T01:35:07.130Z,21.05
2023-04-20T01:38:10.521Z,19.70
2023-04-20T01:41:13.392Z,17.70
2023-04-20T01:44:16.700Z,18.30
2023-04-20T01:47:19.433Z,20.80
2023-04-20T01:50:22.682Z,19.85
2023-04-20T01:53:28.089Z,24.27
2023-04-20T01:56:31.559Z,19.30
2023-04-20T01:59:34.303Z,19.37
2023-04-20T02:02:37.899Z,19.98
2023-04-20T02:05:41.419Z,19.30
2023-04-20T02:08:44.640Z,19.47
2023-04-20T02:11:47.796Z,20.15
2023-04-20T02:14:50.653Z,21.62
2023-04-20T02:17:53.675Z,20.83
2023-04-20T02:20:56.796Z,19.60
2023-04-20T02:24:00.372Z,19.60
2023-04-20T02:27:03.788Z,22.17
2023-04-20T02:30:08.526Z,22.87
2023-04-20T02:33:11.221Z,20.12
2023-04-20T02:36:14.719Z,19.00
2023-04-20T02:39:17.709Z,18.43
2023-04-20T02:42:20.928Z,20.95
2023-04-20T02:45:23.975Z,20.12
2023-04-20T02:48:27.319Z,21.48
2023-04-20T02:51:30.413Z,21.90
2023-04-20T02:54:34.674Z,19.03
2023-04-20T02:57:37.689Z,20.42
2023-04-20T03:00:40.911Z,21.17
2023-04-20T03:03:44.991Z,24.35
2023-04-20T03:06:50.393Z,36.00
2023-04-20T03:09:54.258Z,41.37
2023-04-20T03:12:57.603Z,32.28
2023-04-20T03:16:01.522Z,24.30
2023-04-20T03:19:04.883Z,24.67
2023-04-20T03:22:08.108Z,25.45
2023-04-20T03:25:12.086Z,32.73
2023-04-20T03:28:16.859Z,27.73
2023-04-20T03:31:20.705Z,26.37
2023-04-20T03:34:24.005Z,26.00
2023-04-20T03:37:27.137Z,31.15
2023-04-20T03:40:30.018Z,22.20
2023-04-20T03:43:33.665Z,23.87
2023-04-20T03:46:36.655Z,26.62
2023-04-20T03:49:40.159Z,27.87
2023-04-20T03:52:42.769Z,28.25
2023-04-20T03:55:47.495Z,24.20
2023-04-20T03:58:50.752Z,23.25
2023-04-20T04:01:55.070Z,27.37
2023-04-20T04:04:58.285Z,33.10
2023-04-20T04:08:02.732Z,23.15
2023-04-20T04:11:07.092Z,22.63
2023-04-20T04:14:09.899Z,34.15
2023-04-20T04:17:15.020Z,28.87
2023-04-20T04:20:17.947Z,28.15
2023-04-20T04:23:21.981Z,31.25
2023-04-20T04:26:25.017Z,29.07
2023-04-20T04:29:28.420Z,28.42
2023-04-20T04:32:34.812Z,27.83
2023-04-20T04:35:40.709Z,30.25
2023-04-20T04:38:46.593Z,35.17
2023-04-20T04:41:49.961Z,31.13
2023-04-20T04:44:53.691Z,42.30
2023-04-20T04:47:59.221Z,57.83
2023-04-20T04:51:02.872Z,38.60
2023-04-20T04:54:06.038Z,27.70
2023-04-20T04:57:08.821Z,36.37
2023-04-20T05:00:12.862Z,43.40
2023-04-20T05:03:16.494Z,40.28
2023-04-20T05:06:19.741Z,36.22
2023-04-20T05:09:22.564Z,31.77
2023-04-20T05:12:25.969Z,34.27
2023-04-20T05:15:28.976Z,31.55
2023-04-20T05:18:31.961Z,27.55
2023-04-20T05:21:34.700Z,30.10
2023-04-20T05:24:37.790Z,31.60
2023-04-20T05:27:40.572Z,27.77
2023-04-20T05:30:43.527Z,30.52
2023-04-20T05:33:46.271Z,38.10
2023-04-20T05:36:49.333Z,30.35
2023-04-20T05:39:52.289Z,29.37
2023-04-20T05:42:55.209Z,28.63
2023-04-20T05:45:57.873Z,26.40
2023-04-20T05:49:00.933Z,30.50
2023-04-20T05:52:03.876Z,25.25
2023-04-20T05:55:07.038Z,30.27
2023-04-20T05:58:09.799Z,24.73
2023-04-20T06:01:12.814Z,31.58
2023-04-20T06:04:15.813Z,25.55
2023-04-20T06:07:18.931Z,29.60
2023-04-20T06:10:22.023Z,25.42
2023-04-20T06:13:25.412Z,29.70
2023-04-20T06:16:28.479Z,24.45
2023-04-20T06:19:31.242Z,26.58
2023-04-20T06:22:34.156Z,25.10
2023-04-20T06:25:37.196Z,26.40
2023-04-20T06:28:40.300Z,20.47
2023-04-20T06:31:44.284Z,23.38
2023-04-20T06:34:48.007Z,22.83
2023-04-20T06:37:50.767Z,23.45
2023-04-20T06:40:53.800Z,24.25
2023-04-20T06:43:56.433Z,20.97
2023-04-20T06:46:59.585Z,23.90
